Time;durP1;ratioP1;P1;durP2;ratioP2;P2;SDS_P1;SDS_P2;PMS_P1;PMS_P2;Temp;Humidity;BMP_temperature;BMP_pressure;BME280_temperature;BME280_humidity;BME280_pressure;Samples;Min_cycle;Max_cycle;Signal;HPM_P1;HPM_P2
2024/04/11 00:02:29;;;;;;;7.78;4.05;;;;;;;17.61;100.00;99501.38;5147595;27;20011;-71
2024/04/11 00:04:57;;;;;;;9.52;4.32;;;;;;;17.56;100.00;99504.69;5088932;27;20005;-71
2024/04/11 00:07:28;;;;;;;7.22;4.30;;;;;;;17.55;100.00;99491.47;5114810;27;20005;-71
2024/04/11 00:09:54;;;;;;;13.52;4.63;;;;;;;17.52;100.00;99497.25;5037845;27;20001;-71
2024/04/11 00:12:27;;;;;;;17.17;5.03;;;;;;;17.55;100.00;99486.09;5037417;27;20075;-72
2024/04/11 00:15:21;;;;;;;11.65;4.82;;;;;;;17.70;100.00;99489.41;5039155;27;20004;-71
2024/04/11 00:17:47;;;;;;;17.52;5.53;;;;;;;17.61;100.00;99487.94;5089832;27;20061;-71
2024/04/11 00:20:21;;;;;;;11.45;5.22;;;;;;;17.59;100.00;99482.78;5115773;27;20005;-72
2024/04/11 00:22:54;;;;;;;12.15;5.90;;;;;;;17.70;100.00;99487.53;5040596;27;20001;-71
2024/04/11 00:25:20;;;;;;;10.60;4.95;;;;;;;17.62;100.00;99489.63;5052988;28;20113;-71
2024/04/11 00:27:46;;;;;;;16.25;5.70;;;;;;;17.63;100.00;99488.59;5044924;28;20016;-70
2024/04/11 00:30:17;;;;;;;8.38;4.93;;;;;;;17.65;100.00;99492.69;5163582;27;20045;-71
2024/04/11 00:32:57;;;;;;;14.30;5.35;;;;;;;17.70;100.00;99482.16;5114846;27;20077;-71
2024/04/11 00:35:23;;;;;;;10.75;5.13;;;;;;;17.56;100.00;99469.78;5089070;27;20005;-72
2024/04/11 00:37:57;;;;;;;8.75;4.60;;;;;;;17.54;100.00;99474.53;5052235;28;20075;-70
2024/04/11 00:40:23;;;;;;;15.95;4.93;;;;;;;17.56;100.00;99477.84;5051482;28;20002;-70
2024/04/11 00:42:49;;;;;;;10.60;5.32;;;;;;;17.56;100.00;99479.72;5073449;28;20002;-70
2024/04/11 00:45:17;;;;;;;10.77;5.80;;;;;;;17.54;100.00;99474.53;5123652;27;20001;-72
2024/04/11 00:47:53;;;;;;;14.63;6.25;;;;;;;17.52;100.00;99473.09;5094645;27;20371;-72
2024/04/11 00:50:46;;;;;;;10.80;5.32;;;;;;;17.66;100.00;99478.25;5089788;27;20139;-72
2024/04/11 00:53:19;;;;;;;11.27;5.15;;;;;;;17.57;100.00;99481.34;5089149;27;20008;-72
2024/04/11 00:55:45;;;;;;;9.00;5.15;;;;;;;17.50;100.00;99486.72;5141341;27;20200;-73
2024/04/11 00:58:12;;;;;;;12.82;5.63;;;;;;;17.56;100.00;99487.78;5135467;27;19999;-72
2024/04/11 01:00:44;;;;;;;9.38;5.30;;;;;;;17.55;100.00;99489.63;5209600;27;20011;-72
2024/04/11 01:03:21;;;;;;;9.65;4.88;;;;;;;17.49;100.00;99486.91;5171441;27;20101;-72
2024/04/11 01:05:52;;;;;;;10.98;5.57;;;;;;;17.47;100.00;99489.81;5085724;27;20008;-70
2024/04/11 01:08:21;;;;;;;8.98;5.63;;;;;;;17.54;100.00;99492.50;5086157;27;20013;-71
2024/04/11 01:11:09;;;;;;;10.13;5.85;;;;;;;17.50;100.00;99488.56;5044122;28;20007;-71
2024/04/11 01:13:41;;;;;;;12.18;5.95;;;;;;;17.49;100.00;99479.69;5020685;28;20443;-70
2024/04/11 01:16:10;;;;;;;14.32;6.70;;;;;;;17.47;100.00;99486.28;5020359;28;20118;-70
2024/04/11 01:18:37;;;;;;;10.20;5.53;;;;;;;17.46;100.00;99487.34;5051318;28;20090;-70
2024/04/11 01:21:07;;;;;;;14.43;7.25;;;;;;;17.37;100.00;99489.38;5089801;28;20509;-71
2024/04/11 01:23:35;;;;;;;16.27;7.35;;;;;;;17.44;100.00;99478.66;5056731;28;20079;-71
2024/04/11 01:26:05;;;;;;;13.43;7.15;;;;;;;17.48;100.00;99471.84;5068485;27;20009;-71
2024/04/11 01:28:35;;;;;;;15.63;6.82;;;;;;;17.43;100.00;99467.06;5093728;27;20533;-71
2024/04/11 01:31:02;;;;;;;14.85;7.55;;;;;;;17.50;100.00;99467.06;5120709;27;20001;-71
2024/04/11 01:33:32;;;;;;;14.70;7.00;;;;;;;17.49;100.00;99468.97;5151810;27;20514;-71
2024/04/11 01:35:59;;;;;;;18.67;7.60;;;;;;;17.41;100.00;99473.66;5152908;27;20007;-71
2024/04/11 01:38:25;;;;;;;15.55;7.38;;;;;;;17.43;100.00;99463.53;5113709;27;20453;-71
2024/04/11 01:40:54;;;;;;;17.90;7.72;;;;;;;17.46;100.00;99455.09;5087998;27;20012;-71
2024/04/11 01:43:26;;;;;;;16.58;7.28;;;;;;;17.37;100.00;99459.84;5082320;28;20096;-71
2024/04/11 01:45:56;;;;;;;13.65;7.28;;;;;;;17.44;100.00;99457.16;5056545;28;20433;-72
2024/04/11 01:48:26;;;;;;;19.08;8.18;;;;;;;17.34;100.00;99451.34;5113353;27;20033;-71
2024/04/11 01:50:53;;;;;;;16.92;8.27;;;;;;;17.34;100.00;99462.09;5173083;27;20054;-71
2024/04/11 01:53:21;;;;;;;17.48;8.23;;;;;;;17.33;100.00;99453.22;5145497;27;20000;-71
2024/04/11 01:55:51;;;;;;;13.02;6.68;;;;;;;17.42;100.00;99448.47;5172410;27;20000;-71
2024/04/11 01:58:18;;;;;;;16.70;7.45;;;;;;;17.35;100.00;99447.63;5154225;27;20012;-72
2024/04/11 02:00:48;;;;;;;16.00;7.40;;;;;;;17.40;100.00;99445.16;5209110;27;20071;-70
2024/04/11 02:03:14;;;;;;;15.27;6.88;;;;;;;17.34;100.00;99449.50;5176408;27;20005;-70
2024/04/11 02:05:41;;;;;;;15.90;7.43;;;;;;;17.31;100.00;99446.41;5148987;27;20015;-70
2024/04/11 02:08:08;;;;;;;18.00;6.97;;;;;;;17.33;100.00;99444.34;5148419;27;20048;-70
2024/04/11 02:10:38;;;;;;;9.88;6.82;;;;;;;17.36;100.00;99438.56;5115284;27;20016;-70
2024/04/11 02:13:08;;;;;;;11.95;6.15;;;;;;;17.29;100.00;99445.78;5090294;27;20464;-70
2024/04/11 02:15:37;;;;;;;12.23;5.88;;;;;;;17.31;100.00;99433.81;5116858;27;20001;-73
2024/04/11 02:18:17;;;;;;;13.20;6.22;;;;;;;17.24;100.00;99438.34;5024317;28;20491;-73
2024/04/11 02:20:47;;;;;;;13.93;7.50;;;;;;;17.30;100.00;99439.41;4997551;28;20106;-72
2024/04/11 02:23:20;;;;;;;15.23;6.45;;;;;;;17.34;100.00;99435.25;5011986;28;20020;-71
2024/04/11 02:25:51;;;;;;;11.38;5.88;;;;;;;17.33;100.00;99441.66;4962380;28;20005;-70
2024/04/11 02:28:19;;;;;;;;;;;;;;;17.39;100.00;99438.97;4963260;28;20008;-70
2024/04/11 02:30:45;;;;;;;16.02;6.75;;;;;;;17.24;100.00;99435.66;4967414;28;19939;-71
2024/04/11 02:33:16;;;;;;;10.65;6.00;;;;;;;17.29;100.00;99438.56;5035038;28;20014;-71
2024/04/11 02:36:10;;;;;;;12.43;6.13;;;;;;;17.39;100.00;99433.59;5041982;28;20535;-71
2024/04/11 02:38:39;;;;;;;12.75;6.50;;;;;;;17.28;100.00;99420.81;5069197;28;20004;-72
2024/04/11 02:41:13;;;;;;;11.10;5.90;;;;;;;17.29;100.00;99425.13;5079529;27;20034;-72
2024/04/11 02:43:50;;;;;;;11.20;5.97;;;;;;;17.29;100.00;99427.81;5091086;27;20017;-72
2024/04/11 02:46:15;;;;;;;9.82;5.80;;;;;;;17.19;100.00;99432.75;5144189;27;20009;-72
2024/04/11 02:48:45;;;;;;;14.43;5.72;;;;;;;17.30;100.00;99418.72;5132068;27;20000;-72
2024/04/11 02:51:15;;;;;;;12.15;5.55;;;;;;;17.23;100.00;99412.53;5154247;27;20000;-75
2024/04/11 02:53:45;;;;;;;10.82;5.82;;;;;;;17.27;100.00;99418.31;5127333;27;21009;-73
2024/04/11 02:56:18;;;;;;;13.55;6.15;;;;;;;17.21;100.00;99416.44;5175497;27;20004;-72
2024/04/11 02:58:50;;;;;;;10.60;4.88;;;;;;;17.20;100.00;99418.31;5124800;27;20372;-72
2024/04/11 03:01:33;;;;;;;9.98;5.40;;;;;;;17.32;100.00;99415.84;5152029;27;20000;-73
2024/04/11 03:04:01;;;;;;;9.38;5.15;;;;;;;17.19;100.00;99410.47;5156374;27;20016;-65
2024/04/11 03:06:31;;;;;;;8.65;5.03;;;;;;;17.20;100.00;99406.75;5109918;27;20355;-67
2024/04/11 03:08:58;;;;;;;8.07;4.90;;;;;;;17.24;100.00;99400.75;5137238;27;20013;-69
2024/04/11 03:11:25;;;;;;;11.80;4.95;;;;;;;17.27;100.00;99405.72;5137433;27;20006;-69
2024/04/11 03:14:00;;;;;;;12.05;5.38;;;;;;;17.38;100.00;99397.03;5103801;27;20560;-68
2024/04/11 03:16:30;;;;;;;11.73;5.63;;;;;;;17.38;100.00;99404.25;5168539;27;20005;-69
2024/04/11 03:18:57;;;;;;;12.48;5.00;;;;;;;17.36;100.00;99404.47;5085223;28;20074;-68
2024/04/11 03:21:24;;;;;;;10.52;5.40;;;;;;;17.36;100.00;99404.47;5111171;27;20024;-72
2024/04/11 03:23:50;;;;;;;12.88;5.72;;;;;;;17.36;100.00;99396.41;5112707;27;20365;-67
2024/04/11 03:26:16;;;;;;;13.55;5.75;;;;;;;17.33;100.00;99398.72;5139720;27;20012;-66
2024/04/11 03:28:45;;;;;;;12.63;5.32;;;;;;;17.32;100.00;99403.25;5054956;28;20012;-67
2024/04/11 03:31:13;;;;;;;12.02;5.80;;;;;;;17.37;100.00;99402.63;5105790;27;20011;-67
2024/04/11 03:33:39;;;;;;;8.85;5.53;;;;;;;17.30;100.00;99383.03;5108965;27;20005;-66
2024/04/11 03:36:12;;;;;;;11.85;5.70;;;;;;;17.41;100.00;99383.22;5172621;27;20475;-67
2024/04/11 03:38:39;;;;;;;11.85;5.45;;;;;;;17.39;100.00;99389.84;5175093;27;20026;-66
2024/04/11 03:41:10;;;;;;;7.15;4.60;;;;;;;17.52;100.00;99390.69;5202055;27;20440;-67
2024/04/11 03:43:39;;;;;;;12.05;5.03;;;;;;;17.56;100.00;99397.25;5201156;27;20000;-66
2024/04/11 03:46:23;;;;;;;12.65;6.05;;;;;;;17.68;100.00;99394.78;5201961;27;20015;-67
2024/04/11 03:48:56;;;;;;;8.30;5.07;;;;;;;17.69;100.00;99393.75;5205398;27;20011;-66
2024/04/11 03:51:33;;;;;;;11.13;5.32;;;;;;;17.75;100.00;99390.22;5242595;27;20003;-66
2024/04/11 03:54:03;;;;;;;11.68;5.28;;;;;;;17.74;100.00;99391.25;5211625;27;20008;-67
2024/04/11 03:56:29;;;;;;;10.52;4.70;;;;;;;17.77;100.00;99398.91;5253476;27;20500;-67
2024/04/11 03:58:56;;;;;;;13.27;5.22;;;;;;;17.74;100.00;99397.47;5226140;27;20068;-72
2024/04/11 04:01:27;;;;;;;11.73;4.90;;;;;;;17.90;100.00;99405.06;5281109;27;19997;-68
2024/04/11 04:03:58;;;;;;;13.05;5.60;;;;;;;17.92;100.00;99411.06;5271719;26;20004;-68
2024/04/11 04:06:23;;;;;;;8.68;4.70;;;;;;;17.89;100.00;99407.97;5384040;26;20175;-68
2024/04/11 04:08:51;;;;;;;9.88;4.90;;;;;;;17.95;100.00;99397.22;5354956;26;20049;-68
2024/04/11 04:11:18;;;;;;;8.77;5.30;;;;;;;18.01;100.00;99408.97;5383781;26;20475;-69
2024/04/11 04:13:44;;;;;;;10.00;5.10;;;;;;;17.95;100.00;99396.38;5380378;26;20470;-69
2024/04/11 04:16:11;;;;;;;8.07;4.35;;;;;;;18.17;100.00;99405.81;5380303;26;20532;-70
2024/04/11 04:18:38;;;;;;;7.75;4.22;;;;;;;18.24;100.00;99406.59;5410180;26;20492;-70
2024/04/11 04:21:10;;;;;;;6.45;4.30;;;;;;;18.29;100.00;99398.75;5380706;26;20014;-70
2024/04/11 04:23:35;;;;;;;12.18;5.25;;;;;;;18.36;100.00;99407.59;5354344;26;20011;-69
2024/04/11 04:26:04;;;;;;;6.50;4.03;;;;;;;18.63;100.00;99421.78;5382163;26;20051;-69
2024/04/11 04:28:33;;;;;;;10.00;5.40;;;;;;;18.65;100.00;99414.34;5378471;26;20000;-69
2024/04/11 04:31:20;;;;;;;9.43;4.95;;;;;;;18.76;100.00;99416.34;5379115;26;20020;-69
2024/04/11 04:33:50;;;;;;;11.85;5.07;;;;;;;18.70;100.00;99396.50;5380496;26;20004;-69
2024/04/11 04:36:18;;;;;;;8.20;4.90;;;;;;;18.64;100.00;99408.13;5349557;26;20012;-70
2024/04/11 04:38:47;;;;;;;10.82;5.20;;;;;;;18.83;100.00;99417.97;5379186;26;20362;-70
2024/04/11 04:41:13;;;;;;;8.32;4.80;;;;;;;18.92;100.00;99405.91;5350304;26;20021;-69
2024/04/11 04:43:41;;;;;;;10.15;4.75;;;;;;;19.04;100.00;99401.47;5379022;26;20423;-69
2024/04/11 04:46:07;;;;;;;9.18;4.80;;;;;;;19.11;100.00;99421.06;5349523;26;20023;-69
2024/04/11 04:48:33;;;;;;;7.93;4.60;;;;;;;19.29;100.00;99420.34;5380800;26;20013;-69
2024/04/11 04:51:00;;;;;;;5.63;3.65;;;;;;;19.43;100.00;99421.91;5378856;26;20054;-70
2024/04/11 04:53:26;;;;;;;6.95;4.45;;;;;;;19.49;100.00;99421.88;5321746;26;20450;-69
2024/04/11 04:55:53;;;;;;;8.90;3.85;;;;;;;19.61;100.00;99413.88;5349472;26;20004;-69
2024/04/11 04:58:20;;;;;;;3.83;2.95;;;;;;;19.73;100.00;99410.22;5349585;26;20451;-70
2024/04/11 05:00:46;;;;;;;8.98;4.25;;;;;;;19.78;100.00;99414.94;5320577;26;20012;-70
2024/04/11 05:03:12;;;;;;;9.00;4.70;;;;;;;19.74;100.00;99413.75;5378589;26;20019;-69
2024/04/11 05:05:39;;;;;;;6.72;3.67;;;;;;;19.76;100.00;99404.41;5320245;26;20038;-69
2024/04/11 05:08:08;;;;;;;10.90;3.95;;;;;;;19.71;100.00;99411.50;5349271;26;20016;-69
2024/04/11 05:10:35;;;;;;;7.00;3.92;;;;;;;19.72;100.00;99413.97;5350535;26;20050;-69
2024/04/11 05:13:09;;;;;;;7.93;3.53;;;;;;;19.79;100.00;99405.81;5349739;26;20080;-70
2024/04/11 05:15:38;;;;;;;9.15;3.55;;;;;;;20.10;100.00;99403.00;5351161;26;20435;-72
2024/04/11 05:18:05;;;;;;;5.55;3.30;;;;;;;20.37;100.00;99403.53;5378455;26;20011;-72
2024/04/11 05:20:33;;;;;;;8.27;3.80;;;;;;;20.56;100.00;99407.88;5378138;26;20000;-67
2024/04/11 05:22:59;;;;;;;5.57;3.70;;;;;;;20.60;100.00;99412.59;5350193;26;20012;-67
2024/04/11 05:25:32;;;;;;;5.53;3.03;;;;;;;20.78;100.00;99412.53;5380262;26;20082;-69
2024/04/11 05:28:00;;;;;;;8.50;3.58;;;;;;;20.90;100.00;99397.22;5378555;26;20358;-70
2024/04/11 05:30:27;;;;;;;4.70;3.70;;;;;;;20.96;100.00;99404.41;5407942;26;20091;-69
2024/04/11 05:32:55;;;;;;;5.07;3.17;;;;;;;20.98;100.00;99409.59;5377730;26;20004;-69
2024/04/11 05:35:24;;;;;;;4.35;3.03;;;;;;;21.10;100.00;99410.44;5378489;26;20066;-69
2024/04/11 05:37:50;;;;;;;4.78;3.10;;;;;;;21.24;100.00;99404.63;5349694;26;20539;-69
2024/04/11 05:40:17;;;;;;;7.38;3.30;;;;;;;21.35;100.00;99408.38;5378027;26;20423;-67
2024/04/11 05:42:45;;;;;;;3.47;2.70;;;;;;;21.53;100.00;99416.38;5378498;26;20008;-70
2024/04/11 05:45:16;;;;;;;5.28;3.05;;;;;;;21.78;100.00;99425.16;5377836;26;20000;-69
2024/04/11 05:47:44;;;;;;;4.32;2.60;;;;;;;21.96;100.00;99422.31;5279281;27;20002;-69
2024/04/11 05:50:10;;;;;;;6.10;3.25;;;;;;;22.03;100.00;99411.38;5306428;26;20021;-71
2024/04/11 05:52:37;;;;;;;6.78;2.72;;;;;;;22.07;100.00;99418.78;5279015;27;20471;-69
2024/04/11 05:55:03;;;;;;;5.80;3.13;;;;;;;22.14;100.00;99421.38;5304379;26;20028;-67
2024/04/11 05:57:29;;;;;;;5.72;3.20;;;;;;;22.14;100.00;99416.75;5244237;27;20500;-67
2024/04/11 05:59:55;;;;;;;7.78;3.65;;;;;;;22.16;100.00;99422.75;5244542;27;20014;-68
2024/04/11 06:02:22;;;;;;;6.70;3.15;;;;;;;22.27;100.00;99404.84;5213208;27;20345;-70
2024/04/11 06:04:48;;;;;;;6.13;3.30;;;;;;;22.38;100.00;99412.97;5216235;27;20106;-68
2024/04/11 06:07:14;;;;;;;6.03;2.95;;;;;;;22.41;100.00;99422.47;5216121;27;20046;-69
2024/04/11 06:09:45;;;;;;;5.50;3.20;;;;;;;22.58;100.00;99432.34;5243910;27;20091;-70
2024/04/11 06:12:11;;;;;;;12.15;3.28;;;;;;;22.64;100.00;99433.25;5271936;27;20014;-70
2024/04/11 06:14:37;;;;;;;9.23;3.30;;;;;;;22.66;100.00;99441.97;5215873;27;20006;-68
2024/04/11 06:17:03;;;;;;;3.65;3.00;;;;;;;22.81;100.00;99437.69;5243709;27;20006;-68
2024/04/11 06:19:29;;;;;;;3.70;2.60;;;;;;;23.03;100.00;99427.78;5217078;27;20504;-67
2024/04/11 06:21:57;;;;;;;8.95;3.65;;;;;;;23.19;100.00;99435.16;5216499;27;20008;-67
2024/04/11 06:24:23;;;;;;;4.90;2.65;;;;;;;23.33;99.48;99432.13;5255444;26;20052;-68
2024/04/11 06:26:50;;;;;;;8.68;2.97;;;;;;;23.36;97.72;99432.47;5256740;26;20000;-68
2024/04/11 06:29:22;;;;;;;7.00;3.30;;;;;;;23.38;96.88;99440.38;5308450;26;20423;-67
2024/04/11 06:31:48;;;;;;;5.95;3.10;;;;;;;23.38;93.38;99434.94;5314946;26;20392;-68
2024/04/11 06:34:16;;;;;;;5.43;3.03;;;;;;;23.57;94.11;99431.75;5313857;26;20085;-67
2024/04/11 06:36:41;;;;;;;3.53;2.83;;;;;;;23.69;92.61;99418.94;5313563;26;20037;-67
2024/04/11 06:39:13;;;;;;;7.95;3.17;;;;;;;23.72;89.30;99426.59;5313141;26;20119;-67
2024/04/11 06:41:39;;;;;;;6.95;2.88;;;;;;;23.97;88.18;99423.47;5341751;26;20068;-70
2024/04/11 06:44:08;;;;;;;7.25;3.00;;;;;;;24.17;85.51;99421.03;5285627;26;20008;-68
2024/04/11 06:46:37;;;;;;;3.42;2.80;;;;;;;24.42;87.13;99430.31;5345765;26;19993;-68
2024/04/11 06:49:04;;;;;;;5.60;3.20;;;;;;;24.53;82.83;99421.22;5345472;26;20008;-67
2024/04/11 06:51:37;;;;;;;6.45;2.92;;;;;;;24.65;82.44;99432.81;5345602;26;20456;-67
2024/04/11 06:54:04;;;;;;;3.63;2.40;;;;;;;24.60;80.46;99437.34;5345608;26;20041;-67
2024/04/11 06:56:29;;;;;;;7.95;2.83;;;;;;;24.59;82.18;99424.81;5374952;26;20009;-67
2024/04/11 06:58:55;;;;;;;4.32;2.50;;;;;;;24.80;83.48;99443.03;5290260;26;20009;-67
2024/04/11 07:01:21;;;;;;;5.45;2.45;;;;;;;25.06;81.30;99441.41;5290722;26;20009;-69
2024/04/11 07:03:49;;;;;;;4.53;2.20;;;;;;;25.37;77.27;99449.63;5347397;26;20005;-68
2024/04/11 07:06:21;;;;;;;6.88;2.95;;;;;;;25.72;77.17;99455.38;5345925;26;20013;-68
2024/04/11 07:08:52;;;;;;;3.67;2.17;;;;;;;26.06;73.45;99454.00;5315845;26;20001;-69
2024/04/11 07:11:32;;;;;;;4.22;2.40;;;;;;;26.26;71.81;99450.63;5283887;26;20004;-68
2024/04/11 07:14:08;;;;;;;2.20;1.92;;;;;;;26.45;67.88;99458.06;5273154;26;20330;-67
2024/04/11 07:16:44;;;;;;;4.65;2.58;;;;;;;26.66;65.38;99456.28;5322493;26;20007;-72
2024/04/11 07:19:11;;;;;;;3.65;2.40;;;;;;;26.90;64.19;99470.25;5324286;26;20000;-68
2024/04/11 07:21:39;;;;;;;3.65;2.10;;;;;;;27.21;62.75;99469.25;5321139;26;20003;-68
2024/04/11 07:24:07;;;;;;;3.35;2.38;;;;;;;27.50;58.80;99463.06;5281540;27;20094;-69
2024/04/11 07:26:36;;;;;;;2.45;2.00;;;;;;;27.82;56.49;99466.34;5281304;27;20445;-67
2024/04/11 07:29:04;;;;;;;2.33;1.85;;;;;;;28.20;58.30;99455.94;5225550;27;19998;-68
2024/04/11 07:31:35;;;;;;;5.00;2.22;;;;;;;28.22;52.97;99462.75;5280813;27;19997;-68
2024/04/11 07:34:04;;;;;;;4.65;2.20;;;;;;;28.45;51.45;99455.84;5247964;27;20021;-68
2024/04/11 07:36:32;;;;;;;6.70;2.95;;;;;;;28.87;47.95;99465.28;5278982;26;20001;-67
2024/04/11 07:38:59;;;;;;;4.60;3.17;;;;;;;30.31;42.08;99458.22;5251761;27;20001;-72
2024/04/11 07:41:44;;;;;;;3.20;2.90;;;;;;;32.59;35.74;99459.69;5251826;27;20002;-67
2024/04/11 07:44:17;;;;;;;9.57;3.40;;;;;;;35.11;28.54;99470.72;5255407;26;20336;-68
2024/04/11 07:46:44;;;;;;;6.53;3.10;;;;;;;36.80;25.45;99474.41;5250707;27;20563;-70
2024/04/11 07:49:10;;;;;;;4.45;2.90;;;;;;;38.13;22.68;99487.09;5222458;27;20002;-71
2024/04/11 07:51:37;;;;;;;6.40;3.08;;;;;;;39.32;21.36;99484.72;5251541;27;20012;-67
2024/04/11 07:54:04;;;;;;;2.45;1.95;;;;;;;40.01;19.72;99489.97;5251988;27;20013;-70
2024/04/11 07:56:33;;;;;;;5.72;2.15;;;;;;;40.66;18.33;99491.31;5222903;27;20005;-68
2024/04/11 07:58:58;;;;;;;4.10;2.20;;;;;;;41.25;17.57;99498.38;5279316;27;20117;-68
2024/04/11 08:01:31;;;;;;;2.53;2.00;;;;;;;41.89;16.69;99494.97;5247704;26;20004;-69
2024/04/11 08:04:03;;;;;;;3.05;2.33;;;;;;;41.94;17.08;99497.50;5316468;26;20756;-68
2024/04/11 08:06:34;;;;;;;5.32;2.47;;;;;;;41.65;16.71;99496.09;5287231;26;20072;-68
2024/04/11 08:09:01;;;;;;;4.78;2.13;;;;;;;40.67;16.19;99498.50;5325048;26;20044;-70
2024/04/11 08:11:41;;;;;;;2.10;1.80;;;;;;;40.48;17.03;99495.63;5282671;26;20252;-70
2024/04/11 08:14:16;;;;;;;;;;;;;;;40.40;16.55;99510.53;5337689;26;20004;-69
2024/04/11 08:16:47;;;;;;;2.88;2.10;;;;;;;40.48;16.94;99495.63;5315688;26;19933;-70
2024/04/11 08:19:12;;;;;;;2.15;1.90;;;;;;;40.78;16.82;99499.59;5334611;26;20005;-69
2024/04/11 08:21:38;;;;;;;2.25;1.85;;;;;;;41.39;16.27;99506.25;5319304;26;20000;-77
2024/04/11 08:24:04;;;;;;;3.65;1.90;;;;;;;41.73;15.09;99505.41;5319799;26;20007;-69
2024/04/11 08:26:32;;;;;;;1.58;1.42;;;;;;;41.56;15.07;99503.06;5311896;26;20005;-69
2024/04/11 08:29:00;;;;;;;2.85;1.40;;;;;;;41.59;15.50;99503.16;5183818;27;20007;-70
2024/04/11 08:31:30;;;;;;;3.83;1.67;;;;;;;41.58;15.08;99495.16;5178422;27;20100;-70
2024/04/11 08:33:58;;;;;;;2.58;1.88;;;;;;;41.44;15.69;99497.59;5124590;27;20399;-70
2024/04/11 08:36:26;;;;;;;3.87;1.70;;;;;;;41.43;15.05;99495.97;5124683;27;20046;-69
2024/04/11 08:38:54;;;;;;;3.20;1.90;;;;;;;41.50;14.41;99493.38;5097710;27;20423;-68
2024/04/11 08:41:21;;;;;;;3.47;1.50;;;;;;;41.15;13.45;99495.34;5123392;27;20004;-70
2024/04/11 08:43:47;;;;;;;3.80;1.42;;;;;;;40.43;13.46;99499.47;5113185;27;20041;-70
2024/04/11 08:46:14;;;;;;;3.53;1.52;;;;;;;39.41;14.40;99504.06;5113572;27;20009;-69
2024/04/11 08:48:41;;;;;;;3.70;1.48;;;;;;;38.57;14.94;99510.44;5114301;27;20016;-70
2024/04/11 08:51:20;;;;;;;1.58;0.90;;;;;;;37.42;15.38;99513.31;5114893;27;20001;-69
2024/04/11 08:53:49;;;;;;;2.10;1.25;;;;;;;35.56;16.44;99517.13;5087211;27;20046;-69
2024/04/11 08:56:16;;;;;;;;;;;;;;;34.05;17.58;99506.78;5114718;27;20054;-69
2024/04/11 08:58:44;;;;;;;2.67;1.38;;;;;;;32.97;18.81;99520.03;5088013;27;19941;-68
2024/04/11 09:01:14;;;;;;;5.95;1.30;;;;;;;32.56;20.11;99518.06;5144771;27;20033;-69
2024/04/11 09:03:48;;;;;;;2.75;1.25;;;;;;;32.51;20.25;99518.16;5120003;27;20014;-70
2024/04/11 09:09:19;;;;;;;3.13;1.23;;;;;;;32.02;20.85;99515.16;5217454;27;20010;-67
2024/04/11 09:11:46;;;;;;;4.22;1.60;;;;;;;31.67;21.55;99515.72;5216794;27;20274;-68
2024/04/11 09:14:13;;;;;;;4.50;1.70;;;;;;;31.56;22.04;99517.00;5218342;27;20042;-68
2024/04/11 09:16:39;;;;;;;2.08;1.50;;;;;;;31.02;22.73;99524.84;5229166;27;20038;-70
2024/04/11 09:19:09;;;;;;;2.45;1.27;;;;;;;29.83;23.71;99525.75;5197110;27;20053;-70
2024/04/11 09:21:44;;;;;;;6.93;1.60;;;;;;;29.50;25.33;99521.03;5274094;26;20004;-69
2024/04/11 09:24:23;;;;;;;3.28;1.35;;;;;;;29.04;26.12;99525.09;5315413;26;20027;-72
2024/04/11 09:26:53;;;;;;;3.33;1.40;;;;;;;28.80;26.82;99527.66;5316238;26;20399;-69
2024/04/11 09:29:19;;;;;;;1.85;1.42;;;;;;;28.73;27.58;99532.59;5287133;26;20021;-69
2024/04/11 09:31:47;;;;;;;2.40;1.65;;;;;;;29.56;27.09;99534.41;5317016;26;20415;-68
2024/04/11 09:34:14;;;;;;;2.38;1.63;;;;;;;30.66;25.93;99540.09;5320767;26;20004;-69
2024/04/11 09:36:49;;;;;;;1.70;1.60;;;;;;;31.93;24.70;99543.63;5378552;26;20024;-70
2024/04/11 09:42:19;;;;;;;2.42;1.60;;;;;;;33.80;22.28;99554.22;5289191;26;20000;-69
2024/04/11 09:44:52;;;;;;;1.92;1.70;;;;;;;34.24;22.25;99551.47;5286482;26;20004;-68
2024/04/11 09:47:31;;;;;;;2.83;1.80;;;;;;;33.73;21.29;99562.13;5256903;26;19997;-69
2024/04/11 09:50:09;;;;;;;4.07;1.70;;;;;;;33.67;20.53;99544.09;5285335;26;20016;-69
2024/04/11 09:52:43;;;;;;;2.78;1.58;;;;;;;33.93;20.25;99549.81;5258247;26;20011;-69
2024/04/11 09:55:16;;;;;;;2.20;1.55;;;;;;;33.62;19.65;99549.69;5259708;26;20001;-70
2024/04/11 09:57:46;;;;;;;2.35;1.60;;;;;;;33.54;19.30;99555.13;5228016;26;20009;-71
2024/04/11 10:00:48;;;;;;;2.50;1.50;;;;;;;32.95;19.13;99560.78;5184726;27;20079;-69
2024/04/11 10:03:18;;;;;;;1.40;1.30;;;;;;;32.89;18.09;99567.53;5184228;27;19999;-70
2024/04/11 10:05:46;;;;;;;2.38;1.30;;;;;;;33.35;17.75;99573.72;5119587;27;20405;-69
2024/04/11 10:08:27;;;;;;;1.60;1.40;;;;;;;34.23;16.76;99565.59;5146407;27;20016;-68
2024/04/11 10:10:54;;;;;;;2.97;1.10;;;;;;;34.89;15.10;99576.56;5083373;28;20078;-66
2024/04/11 10:13:22;;;;;;;4.43;1.30;;;;;;;34.95;14.03;99574.47;5078170;27;20009;-66
2024/04/11 10:15:59;;;;;;;3.05;1.05;;;;;;;34.94;13.83;99578.34;5087651;27;20009;-66
2024/04/11 10:18:45;;;;;;;2.17;1.38;;;;;;;34.97;14.40;99588.75;5141712;27;20017;-68
2024/04/11 10:21:12;;;;;;;5.47;1.00;;;;;;;34.59;14.70;99590.34;5090808;27;20442;-67
2024/04/11 10:23:38;;;;;;;1.23;1.02;;;;;;;34.39;15.71;99580.66;5040220;27;20013;-68
2024/04/11 10:26:14;;;;;;;1.40;1.08;;;;;;;34.32;15.13;99587.72;5065156;27;20448;-68
2024/04/11 10:28:56;;;;;;;2.03;0.90;;;;;;;34.30;16.25;99576.19;5066944;27;20005;-67
2024/04/11 10:31:25;;;;;;;1.48;0.80;;;;;;;33.80;17.10;99579.03;5003417;28;20083;-67
2024/04/11 10:34:10;;;;;;;2.22;0.93;;;;;;;32.84;17.96;99576.66;5003634;28;20003;-67
2024/04/11 10:36:42;;;;;;;2.60;1.45;;;;;;;31.66;19.75;99566.25;5078360;27;20001;-67
2024/04/11 10:39:17;;;;;;;3.53;1.70;;;;;;;30.66;20.20;99579.25;5067278;27;20462;-67
2024/04/11 10:41:47;;;;;;;2.58;1.40;;;;;;;30.45;21.21;99566.06;5075349;27;20032;-67
2024/04/11 10:44:14;;;;;;;;;;;;;;;29.77;20.40;99567.97;5155231;27;20000;-67
2024/04/11 10:46:42;;;;;;;4.90;1.55;;;;;;;29.68;21.05;99574.34;5182045;27;19984;-67
2024/04/11 10:49:15;;;;;;;2.70;1.55;;;;;;;29.78;20.45;99569.63;5209123;27;20003;-66
2024/04/11 10:51:44;;;;;;;2.17;1.40;;;;;;;30.00;20.57;99571.91;5182980;27;20003;-66
2024/04/11 10:54:11;;;;;;;1.95;1.35;;;;;;;30.21;19.76;99584.38;5214727;27;20430;-66
2024/04/11 10:56:43;;;;;;;1.60;1.00;;;;;;;30.49;18.71;99575.34;5214294;27;19995;-67
2024/04/11 10:59:26;;;;;;;2.05;1.00;;;;;;;30.46;19.31;99587.69;5188047;27;20035;-66
2024/04/11 11:02:02;;;;;;;0.88;0.70;;;;;;;30.32;19.87;99583.19;5214514;27;20007;-68
2024/04/11 11:04:33;;;;;;;3.35;0.90;;;;;;;30.06;20.27;99588.00;5203367;27;20012;-68
2024/04/11 11:07:11;;;;;;;1.45;0.90;;;;;;;29.81;20.35;99595.59;5203580;27;20497;-67
2024/04/11 11:09:42;;;;;;;1.00;0.90;;;;;;;29.42;21.41;99588.13;5233768;27;20007;-67
2024/04/11 11:12:12;;;;;;;1.23;1.10;;;;;;;29.10;21.90;99584.19;5180667;27;20132;-66
2024/04/11 11:14:41;;;;;;;1.58;0.88;;;;;;;28.81;22.06;99596.81;5181481;27;20000;-67
2024/04/11 11:17:17;;;;;;;2.83;1.00;;;;;;;28.59;22.89;99599.88;5174712;27;20049;-69
2024/04/11 11:19:44;;;;;;;2.08;1.00;;;;;;;28.61;23.21;99594.97;5155086;27;20417;-73
2024/04/11 11:22:11;;;;;;;3.33;1.40;;;;;;;28.27;23.55;99588.41;5232580;27;20031;-67
2024/04/11 11:24:38;;;;;;;3.22;1.20;;;;;;;27.96;24.56;99598.50;5091554;27;20023;-68
2024/04/11 11:27:06;;;;;;;4.05;1.20;;;;;;;27.52;23.99;99599.22;5056922;27;20001;-67
2024/04/11 11:29:36;;;;;;;5.10;1.63;;;;;;;27.19;24.50;99600.41;5172921;27;20503;-67
2024/04/11 11:32:02;;;;;;;1.38;1.20;;;;;;;26.95;24.90;99598.41;5173990;27;20490;-67
2024/04/11 11:34:35;;;;;;;1.42;1.10;;;;;;;26.81;25.51;99608.13;5140414;27;20429;-66
2024/04/11 11:37:03;;;;;;;1.63;1.13;;;;;;;26.69;25.73;99612.97;5088542;27;20458;-67
2024/04/11 11:39:35;;;;;;;2.83;1.15;;;;;;;26.44;25.92;99603.53;5141848;27;20444;-66
2024/04/11 11:42:09;;;;;;;3.90;1.30;;;;;;;26.25;26.34;99613.16;5118489;27;20015;-66
2024/04/11 11:47:34;;;;;;;2.30;1.10;;;;;;;26.34;27.13;99617.03;5209671;27;20004;-68
2024/04/11 11:50:35;;;;;;;1.17;1.00;;;;;;;26.56;27.07;99616.09;5206438;27;20454;-67